createdAt,value
2022-11-28T00:01:37.717Z,4.37
2022-11-28T00:04:06.175Z,4.36
2022-11-28T00:06:39.984Z,4.37
2022-11-28T00:09:07.480Z,4.36
2022-11-28T00:11:34.305Z,4.35
2022-11-28T00:14:00.856Z,4.39
2022-11-28T00:16:27.406Z,4.38
2022-11-28T00:18:55.046Z,4.39
2022-11-28T00:21:22.012Z,4.38
2022-11-28T00:23:49.524Z,4.38
2022-11-28T00:26:20.622Z,4.37
2022-11-28T00:28:47.898Z,4.37
2022-11-28T00:31:16.394Z,4.37
2022-11-28T00:33:43.030Z,4.37
2022-11-28T00:36:10.712Z,4.33
2022-11-28T00:38:37.688Z,4.32
2022-11-28T00:41:06.823Z,4.32
2022-11-28T00:43:34.190Z,4.36
2022-11-28T00:46:00.814Z,4.35
2022-11-28T00:48:27.880Z,4.34
2022-11-28T00:50:55.049Z,4.33
2022-11-28T00:53:22.977Z,4.31
2022-11-28T00:55:49.546Z,4.33
2022-11-28T00:58:16.050Z,4.34
2022-11-28T01:00:42.712Z,4.37
2022-11-28T01:03:09.272Z,4.35
2022-11-28T01:05:41.473Z,4.33
2022-11-28T01:08:08.051Z,4.31
2022-11-28T01:10:34.664Z,4.29
2022-11-28T01:13:01.222Z,4.29
2022-11-28T01:15:27.886Z,4.31
2022-11-28T01:17:54.377Z,4.26
2022-11-28T01:20:21.049Z,4.26
2022-11-28T01:22:47.607Z,4.26
2022-11-28T01:25:14.142Z,4.26
2022-11-28T01:27:40.653Z,4.26
2022-11-28T01:30:07.846Z,4.25
2022-11-28T01:32:34.426Z,4.24
2022-11-28T01:35:00.951Z,4.23
2022-11-28T01:37:29.965Z,4.28
2022-11-28T01:39:56.741Z,4.22
2022-11-28T01:42:23.542Z,4.22
2022-11-28T01:44:49.976Z,4.18
2022-11-28T01:47:21.569Z,4.18
2022-11-28T01:49:50.654Z,4.16
2022-11-28T01:52:20.460Z,4.16
2022-11-28T01:54:52.336Z,4.22
2022-11-28T01:57:22.794Z,4.19
2022-11-28T02:00:04.426Z,4.16
2022-11-28T02:02:39.259Z,4.14
2022-11-28T02:05:06.725Z,4.16
2022-11-28T02:07:34.653Z,4.13
2022-11-28T02:10:04.368Z,4.12
2022-11-28T02:12:54.614Z,4.09
2022-11-28T02:15:32.813Z,4.06
2022-11-28T02:18:36.060Z,4.01
2022-11-28T02:21:12.678Z,3.98
2022-11-28T02:24:05.185Z,3.90
2022-11-28T02:26:50.229Z,3.84
2022-11-28T02:29:31.844Z,3.79
2022-11-28T02:32:57.952Z,3.74
2022-11-28T02:35:27.327Z,3.71
2022-11-28T02:38:03.001Z,3.63
2022-11-28T02:40:44.318Z,3.59
2022-11-28T02:43:50.080Z,3.52
2022-11-28T02:46:20.423Z,3.47
2022-11-28T02:48:55.465Z,3.39
2022-11-28T02:51:46.076Z,3.35
2022-11-28T02:54:15.708Z,3.33
2022-11-28T02:56:50.888Z,3.32
2022-11-28T02:59:46.353Z,3.31
2022-11-28T03:02:15.202Z,3.33
2022-11-28T03:04:56.234Z,3.31
2022-11-28T03:07:53.603Z,3.29
2022-11-28T03:10:37.260Z,3.29
2022-11-28T03:13:19.274Z,3.30
2022-11-28T03:16:05.305Z,3.30
2022-11-28T03:18:40.560Z,3.35
2022-11-28T03:21:17.824Z,3.38
2022-11-28T03:23:56.137Z,3.40
2022-11-28T03:26:47.140Z,3.44
2022-11-28T03:29:23.126Z,3.42
2022-11-28T03:31:55.542Z,3.38
2022-11-28T03:34:25.872Z,3.41
2022-11-28T03:37:00.070Z,3.45
2022-11-28T03:39:32.975Z,3.42
2022-11-28T03:42:10.133Z,3.42
2022-11-28T03:44:48.170Z,3.45
2022-11-28T03:47:15.143Z,3.47
2022-11-28T03:49:50.393Z,3.49
2022-11-28T03:52:25.310Z,3.49
2022-11-28T03:54:51.807Z,3.51
2022-11-28T03:57:24.531Z,3.53
2022-11-28T03:59:53.914Z,3.55
2022-11-28T04:02:47.926Z,3.56
2022-11-28T04:05:38.296Z,3.59
2022-11-28T04:08:18.392Z,3.60
2022-11-28T04:11:12.746Z,3.63
2022-11-28T04:14:06.698Z,3.66
2022-11-28T04:16:52.286Z,3.67
2022-11-28T04:19:56.059Z,3.70
2022-11-28T04:22:32.357Z,3.69
2022-11-28T04:25:04.063Z,3.71
2022-11-28T04:27:37.634Z,3.73
2022-11-28T04:30:06.914Z,3.73
2022-11-28T04:32:39.674Z,3.75
2022-11-28T04:35:19.533Z,3.73
2022-11-28T04:37:48.789Z,3.75
2022-11-28T04:40:17.984Z,3.77
2022-11-28T04:42:56.054Z,3.75
2022-11-28T04:45:30.933Z,3.74
2022-11-28T04:47:57.786Z,3.75
2022-11-28T04:50:29.880Z,3.78
2022-11-28T04:53:26.403Z,3.77
2022-11-28T04:55:58.717Z,3.72
2022-11-28T04:58:38.166Z,3.69
2022-11-28T05:01:09.037Z,3.67
2022-11-28T05:03:39.893Z,3.72
2022-11-28T05:06:09.592Z,3.67
2022-11-28T05:08:36.282Z,3.67
2022-11-28T05:11:02.894Z,3.65
2022-11-28T05:13:29.386Z,3.66
2022-11-28T05:15:56.011Z,3.70
2022-11-28T05:18:22.568Z,3.72
2022-11-28T05:20:49.069Z,3.72
2022-11-28T05:23:15.645Z,3.73
2022-11-28T05:25:42.126Z,3.74
2022-11-28T05:28:09.001Z,3.72
2022-11-28T05:30:35.532Z,3.72
2022-11-28T05:33:02.800Z,3.72
2022-11-28T05:35:29.441Z,3.71
2022-11-28T05:37:56.006Z,3.70
2022-11-28T05:40:22.801Z,3.68
2022-11-28T05:42:49.364Z,3.69
2022-11-28T05:45:15.918Z,3.67
2022-11-28T05:47:42.458Z,3.65
2022-11-28T05:50:09.262Z,3.65
2022-11-28T05:52:35.837Z,3.66
2022-11-28T05:55:02.351Z,3.65
2022-11-28T05:57:30.066Z,3.63
2022-11-28T05:59:57.405Z,3.65
2022-11-28T06:02:24.256Z,3.66
2022-11-28T06:04:50.855Z,3.65
2022-11-28T06:07:18.803Z,3.62
2022-11-28T06:09:45.632Z,3.60
2022-11-28T06:12:12.266Z,3.59
2022-11-28T06:14:38.840Z,3.60
2022-11-28T06:17:05.345Z,3.60
2022-11-28T06:19:31.906Z,3.59
2022-11-28T06:21:58.467Z,3.58
2022-11-28T06:24:24.945Z,3.56
2022-11-28T06:26:51.417Z,3.55
2022-11-28T06:29:17.923Z,3.54
2022-11-28T06:31:44.535Z,3.54
2022-11-28T06:34:13.052Z,3.58
2022-11-28T06:36:40.109Z,3.58
2022-11-28T06:39:06.747Z,3.61
2022-11-28T06:41:33.266Z,3.62
2022-11-28T06:43:59.929Z,3.62
2022-11-28T06:46:26.511Z,3.65
2022-11-28T06:48:53.442Z,3.66
2022-11-28T06:51:20.938Z,3.66
2022-11-28T06:53:47.781Z,3.63
2022-11-28T06:56:17.145Z,3.65
2022-11-28T06:58:45.102Z,3.64
2022-11-28T07:01:18.155Z,3.67
2022-11-28T07:03:45.533Z,3.63
2022-11-28T07:06:13.962Z,3.66
2022-11-28T07:08:41.337Z,3.66
2022-11-28T07:11:16.867Z,3.66
2022-11-28T07:13:45.853Z,3.65
2022-11-28T07:16:21.490Z,3.66
2022-11-28T07:18:48.488Z,3.69
2022-11-28T07:21:15.485Z,3.68
2022-11-28T07:23:43.033Z,3.62
2022-11-28T07:26:11.392Z,3.62
2022-11-28T07:28:37.877Z,3.62
2022-11-28T07:31:12.998Z,3.67
2022-11-28T07:33:41.334Z,3.66
2022-11-28T07:36:12.500Z,3.67
2022-11-28T07:38:39.009Z,3.68
2022-11-28T07:41:11.893Z,3.72
2022-11-28T07:43:39.496Z,3.72
2022-11-28T07:46:08.476Z,3.74
2022-11-28T07:48:35.700Z,3.75
2022-11-28T07:51:08.792Z,3.72
2022-11-28T07:53:35.910Z,3.67
2022-11-28T07:56:08.348Z,3.64
2022-11-28T07:58:36.138Z,3.67
2022-11-28T08:01:15.054Z,3.70
2022-11-28T08:03:42.165Z,3.71
2022-11-28T08:06:09.299Z,3.76
2022-11-28T08:08:36.073Z,3.76
2022-11-28T08:11:05.402Z,3.79
2022-11-28T08:13:32.288Z,3.80
2022-11-28T08:15:58.944Z,3.82
2022-11-28T08:18:25.495Z,3.83
2022-11-28T08:20:52.399Z,3.86
2022-11-28T08:23:18.954Z,3.89
2022-11-28T08:25:45.456Z,3.92
2022-11-28T08:28:11.962Z,3.97
2022-11-28T08:30:38.496Z,3.88
2022-11-28T08:33:05.035Z,3.84
2022-11-28T08:35:31.549Z,3.84
2022-11-28T08:38:01.848Z,3.85
2022-11-28T08:40:28.965Z,3.80
2022-11-28T08:42:55.853Z,3.81
2022-11-28T08:45:22.411Z,3.81
2022-11-28T08:47:48.997Z,3.79
2022-11-28T08:50:15.689Z,3.75
2022-11-28T08:52:42.231Z,3.76
2022-11-28T08:55:09.145Z,3.83
2022-11-28T08:57:35.783Z,3.83
2022-11-28T09:00:02.525Z,3.87
2022-11-28T09:02:29.049Z,3.88
2022-11-28T09:04:55.574Z,3.87
2022-11-28T09:07:22.210Z,3.87
2022-11-28T09:09:49.109Z,3.84
2022-11-28T09:12:16.241Z,3.81
2022-11-28T09:14:42.804Z,3.81
2022-11-28T09:17:09.463Z,3.78
2022-11-28T09:19:36.052Z,3.82
2022-11-28T09:22:02.532Z,3.86
2022-11-28T09:24:29.077Z,3.80
2022-11-28T09:26:55.717Z,3.82
2022-11-28T09:29:22.425Z,3.82
2022-11-28T09:31:48.977Z,3.79
2022-11-28T09:34:15.751Z,3.74
2022-11-28T09:36:42.337Z,3.73
2022-11-28T09:39:09.180Z,3.74
2022-11-28T09:41:42.052Z,3.73
2022-11-28T09:44:25.114Z,3.74
2022-11-28T09:46:55.845Z,3.79
2022-11-28T09:49:36.786Z,3.76
2022-11-28T09:52:22.100Z,3.75
2022-11-28T09:55:20.623Z,3.72
2022-11-28T09:57:49.638Z,3.77
2022-11-28T10:00:22.667Z,3.79
2022-11-28T10:03:28.207Z,3.83
2022-11-28T10:06:21.839Z,3.86
2022-11-28T10:09:09.872Z,3.87
2022-11-28T10:11:39.506Z,3.89
2022-11-28T10:14:20.989Z,3.89
2022-11-28T10:17:19.793Z,3.89
2022-11-28T10:20:00.469Z,3.92
2022-11-28T10:22:57.815Z,3.94
2022-11-28T10:25:42.693Z,3.93
2022-11-28T10:28:18.152Z,3.91
2022-11-28T10:30:51.329Z,3.87
2022-11-28T10:33:38.114Z,3.90
2022-11-28T10:36:05.225Z,3.96
2022-11-28T10:38:34.755Z,3.96
2022-11-28T10:41:14.575Z,4.01
2022-11-28T10:44:09.798Z,4.05
2022-11-28T10:47:02.516Z,4.01
2022-11-28T10:49:50.779Z,4.08
2022-11-28T10:52:26.363Z,4.16
2022-11-28T10:55:20.717Z,4.20
2022-11-28T10:57:47.182Z,4.19
2022-11-28T11:00:13.636Z,4.15
2022-11-28T11:02:49.844Z,4.17
2022-11-28T11:05:28.538Z,4.12
2022-11-28T11:07:58.633Z,4.12
2022-11-28T11:10:52.230Z,4.04
2022-11-28T11:13:23.564Z,3.99
2022-11-28T11:15:57.797Z,4.01
2022-11-28T11:18:35.020Z,4.05
2022-11-28T11:21:14.817Z,4.08
2022-11-28T11:23:41.850Z,4.12
2022-11-28T11:26:19.733Z,4.18
2022-11-28T11:28:49.031Z,4.23
2022-11-28T11:31:21.393Z,4.22
2022-11-28T11:33:51.642Z,4.21
2022-11-28T11:36:25.743Z,4.21
2022-11-28T11:38:59.854Z,4.22
2022-11-28T11:41:31.217Z,4.24
2022-11-28T11:44:25.189Z,4.26
2022-11-28T11:47:02.813Z,4.25
2022-11-28T11:49:41.706Z,4.29
2022-11-28T11:52:19.096Z,4.27
2022-11-28T11:54:54.347Z,4.29
2022-11-28T11:57:33.177Z,4.25
2022-11-28T12:00:26.849Z,4.27
2022-11-28T12:03:03.263Z,4.25
2022-11-28T12:06:06.158Z,4.25
2022-11-28T12:08:49.108Z,4.28
2022-11-28T12:11:24.488Z,4.30
2022-11-28T12:13:51.986Z,4.36
2022-11-28T12:16:29.817Z,4.42
2022-11-28T12:19:18.201Z,4.46
2022-11-28T12:22:07.053Z,4.49
2022-11-28T12:24:45.664Z,4.55
2022-11-28T12:27:18.384Z,4.62
2022-11-28T12:29:59.461Z,4.64
2022-11-28T12:33:01.321Z,4.72
2022-11-28T12:35:41.765Z,4.75
2022-11-28T12:38:23.529Z,4.78
2022-11-28T12:41:17.850Z,4.81
2022-11-28T12:44:11.859Z,4.84
2022-11-28T12:46:38.343Z,4.94
2022-11-28T12:49:25.962Z,5.00
2022-11-28T12:52:17.456Z,5.03
2022-11-28T12:55:19.293Z,5.09
2022-11-28T12:58:07.072Z,5.05
2022-11-28T13:00:49.951Z,5.04
2022-11-28T13:03:34.199Z,5.12
2022-11-28T13:06:34.545Z,5.16
2022-11-28T13:09:26.443Z,5.21
2022-11-28T13:12:29.905Z,5.25
2022-11-28T13:15:00.791Z,5.23
2022-11-28T13:17:52.060Z,5.22
2022-11-28T13:20:51.022Z,5.14
2022-11-28T13:23:52.172Z,5.13
2022-11-28T13:26:37.335Z,5.07
2022-11-28T13:29:18.284Z,5.03
2022-11-28T13:31:57.340Z,5.02
2022-11-28T13:34:29.245Z,5.00
2022-11-28T13:39:47.174Z,5.06
2022-11-28T13:43:02.215Z,5.02
2022-11-28T13:45:32.030Z,5.00
2022-11-28T13:48:00.346Z,4.99
2022-11-28T13:50:41.289Z,4.91
2022-11-28T13:53:08.147Z,4.90
2022-11-28T13:55:40.706Z,4.90
2022-11-28T13:58:29.636Z,4.88
2022-11-28T14:01:18.872Z,4.88
2022-11-28T14:04:01.292Z,4.82
2022-11-28T14:06:54.651Z,4.77
2022-11-28T14:09:53.806Z,4.76
2022-11-28T14:12:46.729Z,4.70
2022-11-28T14:15:19.285Z,4.70
2022-11-28T14:17:55.134Z,4.67
2022-11-28T14:20:42.939Z,4.64
2022-11-28T14:23:40.541Z,4.60
2022-11-28T14:26:23.384Z,4.54
2022-11-28T14:28:49.996Z,4.50
2022-11-28T14:31:25.204Z,4.47
2022-11-28T14:33:58.834Z,4.42
2022-11-28T14:36:29.876Z,4.38
2022-11-28T14:39:32.006Z,4.30
2022-11-28T14:42:51.964Z,4.24
2022-11-28T14:45:53.831Z,4.21
2022-11-28T14:48:30.666Z,4.15
2022-11-28T14:51:01.662Z,4.09
2022-11-28T14:53:44.627Z,4.05
2022-11-28T14:56:23.880Z,3.95
2022-11-28T14:58:55.013Z,3.92
2022-11-28T15:01:34.201Z,3.86
2022-11-28T15:04:35.342Z,3.80
2022-11-28T15:07:04.229Z,3.74
2022-11-28T15:09:37.978Z,3.64
2022-11-28T15:12:16.341Z,3.56
2022-11-28T15:14:47.243Z,3.49
2022-11-28T15:17:14.949Z,3.42
2022-11-28T15:19:48.185Z,3.35
2022-11-28T15:22:38.997Z,3.27
2022-11-28T15:25:18.298Z,3.18
2022-11-28T15:27:45.206Z,3.11
2022-11-28T15:30:17.751Z,3.07
2022-11-28T15:32:44.621Z,2.97
2022-11-28T15:35:18.764Z,2.92
2022-11-28T15:37:50.683Z,2.85
2022-11-28T15:40:24.010Z,2.79
2022-11-28T15:42:51.218Z,2.71
2022-11-28T15:45:17.773Z,2.69
2022-11-28T15:47:46.685Z,2.68
2022-11-28T15:50:13.161Z,2.66
2022-11-28T15:52:39.714Z,2.71
2022-11-28T15:55:19.941Z,2.74
2022-11-28T15:57:46.483Z,2.75
2022-11-28T16:00:18.804Z,2.74
2022-11-28T16:02:46.571Z,2.74
2022-11-28T16:05:22.217Z,2.69
2022-11-28T16:07:51.147Z,2.65
2022-11-28T16:10:37.842Z,2.68
2022-11-28T16:13:14.584Z,2.72
2022-11-28T16:15:49.914Z,2.73
2022-11-28T16:18:17.266Z,2.74
2022-11-28T16:20:44.021Z,2.74
2022-11-28T16:23:19.282Z,2.71
2022-11-28T16:25:46.985Z,2.71
2022-11-28T16:28:36.480Z,2.71
2022-11-28T16:31:11.018Z,2.70
2022-11-28T16:33:38.956Z,2.71
2022-11-28T16:36:31.043Z,2.71
2022-11-28T16:39:09.681Z,2.72
2022-11-28T16:41:37.949Z,2.67
2022-11-28T16:44:08.168Z,2.64
2022-11-28T16:46:53.389Z,2.61
2022-11-28T16:49:40.247Z,2.55
2022-11-28T16:52:21.757Z,2.49
2022-11-28T16:54:49.599Z,2.46
2022-11-28T16:57:16.731Z,2.37
2022-11-28T16:59:44.861Z,2.31
2022-11-28T17:02:22.949Z,2.30
2022-11-28T17:04:52.192Z,2.29
2022-11-28T17:07:23.938Z,2.30
2022-11-28T17:09:51.185Z,2.25
2022-11-28T17:12:26.065Z,2.20
2022-11-28T17:14:53.397Z,2.12
2022-11-28T17:17:21.407Z,2.04
2022-11-28T17:19:47.859Z,1.95
2022-11-28T17:22:18.028Z,1.90
2022-11-28T17:24:44.968Z,1.81
2022-11-28T17:27:13.033Z,1.75
2022-11-28T17:29:39.900Z,1.67
2022-11-28T17:32:06.744Z,1.63
2022-11-28T17:34:37.012Z,1.60
2022-11-28T17:37:05.119Z,1.53
2022-11-28T17:39:31.609Z,1.46
2022-11-28T17:41:58.969Z,1.40
2022-11-28T17:44:27.415Z,1.35
2022-11-28T17:46:55.429Z,1.33
2022-11-28T17:49:22.542Z,1.25
2022-11-28T17:51:49.993Z,1.22
2022-11-28T17:54:18.520Z,1.20
2022-11-28T17:56:46.156Z,1.16
2022-11-28T17:59:13.464Z,1.14
2022-11-28T18:01:40.561Z,1.12
2022-11-28T18:04:07.773Z,1.10
2022-11-28T18:06:34.471Z,1.02
2022-11-28T18:09:05.957Z,0.99
2022-11-28T18:11:35.889Z,0.97
2022-11-28T18:14:02.397Z,1.02
2022-11-28T18:16:30.214Z,1.11
2022-11-28T18:18:57.101Z,1.13
2022-11-28T18:21:24.986Z,1.20
2022-11-28T18:23:51.613Z,1.23
2022-11-28T18:26:20.948Z,1.31
2022-11-28T18:28:47.728Z,1.35
2022-11-28T18:31:24.007Z,1.37
2022-11-28T18:33:50.828Z,1.41
2022-11-28T18:36:23.213Z,1.42
2022-11-28T18:38:50.031Z,1.40
2022-11-28T18:41:17.764Z,1.39
2022-11-28T18:43:45.052Z,1.35
2022-11-28T18:46:14.701Z,1.31
2022-11-28T18:48:43.740Z,1.28
2022-11-28T18:51:17.555Z,1.24
2022-11-28T18:53:45.129Z,1.23
2022-11-28T18:56:13.012Z,1.21
2022-11-28T18:58:42.501Z,1.20
2022-11-28T19:01:10.183Z,1.17
2022-11-28T19:03:37.815Z,1.14
2022-11-28T19:06:06.209Z,1.09
2022-11-28T19:08:33.337Z,1.09
2022-11-28T19:11:04.417Z,1.05
2022-11-28T19:13:30.938Z,1.04
2022-11-28T19:15:57.429Z,1.01
2022-11-28T19:18:23.959Z,1.00
2022-11-28T19:20:50.550Z,0.98
2022-11-28T19:23:17.047Z,0.94
2022-11-28T19:25:44.354Z,0.94
2022-11-28T19:28:10.849Z,0.96
2022-11-28T19:30:37.325Z,0.97
2022-11-28T19:33:03.845Z,0.97
2022-11-28T19:35:30.405Z,1.01
2022-11-28T19:37:56.929Z,1.07
2022-11-28T19:40:23.546Z,1.11
2022-11-28T19:42:50.150Z,1.14
2022-11-28T19:45:16.828Z,1.19
2022-11-28T19:47:43.464Z,1.22
2022-11-28T19:50:10.415Z,1.24
2022-11-28T19:52:37.040Z,1.27
2022-11-28T19:55:03.706Z,1.31
2022-11-28T19:57:30.297Z,1.35
2022-11-28T19:59:56.786Z,1.36
2022-11-28T20:02:23.607Z,1.36
2022-11-28T20:04:50.249Z,1.37
2022-11-28T20:07:16.835Z,1.40
2022-11-28T20:09:43.736Z,1.41
2022-11-28T20:12:10.431Z,1.41
2022-11-28T20:14:37.000Z,1.38
2022-11-28T20:17:03.618Z,1.41
2022-11-28T20:19:30.178Z,1.41
2022-11-28T20:21:58.617Z,1.42
2022-11-28T20:24:25.204Z,1.43
2022-11-28T20:26:51.802Z,1.43
2022-11-28T20:29:19.097Z,1.42
2022-11-28T20:31:47.464Z,1.44
2022-11-28T20:34:15.045Z,1.48
2022-11-28T20:36:41.645Z,1.50
2022-11-28T20:39:09.527Z,1.50
2022-11-28T20:41:36.064Z,1.49
2022-11-28T20:44:03.255Z,1.49
2022-11-28T20:46:32.513Z,1.49
2022-11-28T20:49:02.190Z,1.51
2022-11-28T20:51:31.239Z,1.51
2022-11-28T20:53:59.226Z,1.52
2022-11-28T20:56:31.999Z,1.52
2022-11-28T20:59:01.800Z,1.54
2022-11-28T21:01:33.182Z,1.52
2022-11-28T21:04:04.257Z,1.55
2022-11-28T21:06:31.419Z,1.56
2022-11-28T21:08:58.069Z,1.58
2022-11-28T21:11:55.278Z,1.58
2022-11-28T21:14:15.185Z,1.61
2022-11-28T21:16:42.054Z,1.61
2022-11-28T21:19:09.522Z,1.61
2022-11-28T21:21:38.982Z,1.64
2022-11-28T21:24:08.636Z,1.64
2022-11-28T21:26:40.915Z,1.64
2022-11-28T21:29:10.838Z,1.66
2022-11-28T21:31:41.256Z,1.64
2022-11-28T21:34:07.882Z,1.65
2022-11-28T21:36:34.963Z,1.65
2022-11-28T21:39:01.669Z,1.67
2022-11-28T21:41:30.452Z,1.68
2022-11-28T21:43:57.776Z,1.67
2022-11-28T21:46:25.102Z,1.68
2022-11-28T21:48:52.038Z,1.69
2022-11-28T21:51:21.005Z,1.70
2022-11-28T21:53:47.617Z,1.71
2022-11-28T21:56:14.169Z,1.73
2022-11-28T21:58:40.793Z,1.75
2022-11-28T22:01:11.300Z,1.76
2022-11-28T22:03:39.443Z,1.74
2022-11-28T22:06:07.983Z,1.75
2022-11-28T22:08:35.331Z,1.74
2022-11-28T22:11:08.473Z,1.72
2022-11-28T22:13:35.889Z,1.73
2022-11-28T22:16:08.419Z,1.73
2022-11-28T22:18:35.087Z,1.73
2022-11-28T22:21:22.331Z,1.74
2022-11-28T22:23:53.033Z,1.76
2022-11-28T22:26:19.709Z,1.75
2022-11-28T22:28:53.179Z,1.71
2022-11-28T22:31:20.702Z,1.73
2022-11-28T22:33:49.186Z,1.75
2022-11-28T22:36:17.853Z,1.76
2022-11-28T22:38:45.953Z,1.78
2022-11-28T22:41:15.889Z,1.76
2022-11-28T22:43:42.449Z,1.78
2022-11-28T22:46:09.994Z,1.79
2022-11-28T22:48:38.017Z,1.79
2022-11-28T22:51:16.772Z,1.80
2022-11-28T22:53:43.736Z,1.78
2022-11-28T22:56:13.784Z,1.76
2022-11-28T22:58:43.445Z,1.74
2022-11-28T23:01:12.449Z,1.75
2022-11-28T23:03:39.141Z,1.72
2022-11-28T23:06:07.174Z,1.72
2022-11-28T23:08:34.656Z,1.72
2022-11-28T23:11:08.792Z,1.70
2022-11-28T23:13:36.401Z,1.70
2022-11-28T23:16:10.272Z,1.70
2022-11-28T23:18:36.801Z,1.68
2022-11-28T23:21:03.394Z,1.69
2022-11-28T23:23:33.949Z,1.69
2022-11-28T23:26:09.394Z,1.67
2022-11-28T23:28:37.210Z,1.65
2022-11-28T23:31:33.738Z,1.65
2022-11-28T23:34:01.077Z,1.62
2022-11-28T23:36:30.409Z,1.61
2022-11-28T23:38:59.589Z,1.60
2022-11-28T23:41:26.735Z,1.59
2022-11-28T23:43:53.398Z,1.56
2022-11-28T23:46:21.139Z,1.56
2022-11-28T23:48:48.596Z,1.56
2022-11-28T23:51:16.618Z,1.54
2022-11-28T23:53:43.886Z,1.52
2022-11-28T23:56:14.103Z,1.52
2022-11-28T23:58:42.080Z,1.52
